Time;durP1;ratioP1;P1;durP2;ratioP2;P2;SDS_P1;SDS_P2;PMS_P1;PMS_P2;Temp;Humidity;BMP_temperature;BMP_pressure;BME280_temperature;BME280_humidity;BME280_pressure;Samples;Min_cycle;Max_cycle;Signal;HPM_P1;HPM_P2
2022/01/04 00:00:44;;;;;;;24.80;7.22;;;8.00;99.90;;;;;;5021872;28;20070;-92
2022/01/04 00:03:10;;;;;;;23.85;7.65;;;7.90;99.90;;;;;;5038408;28;20143;-95
2022/01/04 00:05:37;;;;;;;21.83;6.75;;;7.90;99.90;;;;;;5021198;28;20054;-94
2022/01/04 00:08:07;;;;;;;26.67;7.25;;;8.00;99.90;;;;;;5037662;28;20049;-94
2022/01/04 00:10:33;;;;;;;20.80;7.55;;;8.10;99.90;;;;;;5021869;28;20069;-94
2022/01/04 00:15:44;;;;;;;28.23;6.88;;;8.10;99.90;;;;;;5037775;28;20471;-93
2022/01/04 00:18:11;;;;;;;23.75;6.93;;;8.20;99.90;;;;;;5021529;28;20052;-95
2022/01/04 00:20:36;;;;;;;25.23;6.30;;;8.10;99.90;;;;;;5037881;28;20053;-94
2022/01/04 00:23:03;;;;;;;24.10;6.07;;;8.10;99.90;;;;;;5021272;28;20056;-94
2022/01/04 00:25:28;;;;;;;25.83;7.05;;;8.20;99.90;;;;;;5021388;28;20206;-94
2022/01/04 00:27:54;;;;;;;24.38;7.22;;;8.00;99.90;;;;;;5037708;28;20516;-94
2022/01/04 00:30:20;;;;;;;25.63;6.50;;;8.20;99.90;;;;;;5021399;28;20406;-93
2022/01/04 00:32:46;;;;;;;32.35;6.72;;;8.20;99.90;;;;;;5021241;28;20053;-95
2022/01/04 00:35:12;;;;;;;23.88;6.63;;;8.00;99.90;;;;;;5021214;28;20053;-93
2022/01/04 00:37:37;;;;;;;30.55;7.00;;;7.90;99.90;;;;;;5021237;28;20053;-94
2022/01/04 00:40:04;;;;;;;27.10;7.03;;;8.20;99.90;;;;;;5021260;28;20063;-93
2022/01/04 00:42:29;;;;;;;22.67;6.00;;;7.80;99.90;;;;;;5037417;28;20395;-93
2022/01/04 00:44:55;;;;;;;31.23;7.35;;;7.90;99.90;;;;;;5021307;28;20053;-93
2022/01/04 00:47:27;;;;;;;34.17;7.43;;;7.80;99.90;;;;;;5037993;28;20096;-94
2022/01/04 00:49:53;;;;;;;31.00;6.85;;;7.80;99.90;;;;;;5021114;28;20490;-94
2022/01/04 00:52:18;;;;;;;28.08;7.80;;;7.80;99.90;;;;;;5021652;28;20051;-92
2022/01/04 00:54:45;;;;;;;23.92;7.05;;;7.80;99.90;;;;;;5037450;28;20091;-93
2022/01/04 00:57:11;;;;;;;30.65;7.03;;;7.70;99.90;;;;;;5037722;28;20396;-93
2022/01/04 00:59:37;;;;;;;27.33;7.53;;;7.70;99.90;;;;;;5021211;28;20422;-94
2022/01/04 01:02:03;;;;;;;23.52;7.18;;;7.60;99.90;;;;;;5037189;28;20056;-94
2022/01/04 01:04:29;;;;;;;22.40;6.75;;;7.80;99.90;;;;;;5036988;28;20111;-92
2022/01/04 01:06:55;;;;;;;30.40;7.05;;;7.80;99.90;;;;;;5020142;28;20049;-92
2022/01/04 01:09:23;;;;;;;27.08;8.10;;;7.80;99.90;;;;;;5020486;28;20053;-93
2022/01/04 01:11:49;;;;;;;24.00;8.35;;;8.10;99.90;;;;;;5036836;28;20533;-93
2022/01/04 01:14:15;;;;;;;23.85;7.30;;;8.10;99.90;;;;;;5020270;28;20056;-93
2022/01/04 01:16:41;;;;;;;26.90;8.48;;;8.10;99.90;;;;;;5036622;28;20060;-93
2022/01/04 01:19:07;;;;;;;29.38;8.43;;;7.90;99.90;;;;;;5020727;28;20132;-94
2022/01/04 01:21:33;;;;;;;28.15;8.50;;;7.90;99.90;;;;;;5036722;28;20102;-93
2022/01/04 01:23:58;;;;;;;31.67;8.40;;;8.10;99.90;;;;;;5036920;28;20041;-95
2022/01/04 01:26:24;;;;;;;33.60;9.70;;;7.90;99.90;;;;;;5036716;28;20491;-94
2022/01/04 01:28:50;;;;;;;25.85;8.50;;;8.00;99.90;;;;;;5036664;28;20445;-93
2022/01/04 01:31:16;;;;;;;22.45;8.48;;;7.80;99.90;;;;;;5020434;28;20514;-95
2022/01/04 01:33:42;;;;;;;31.48;8.98;;;7.80;99.90;;;;;;5020051;28;20049;-93
2022/01/04 01:36:07;;;;;;;35.17;9.45;;;7.80;99.90;;;;;;5020998;28;20605;-93
2022/01/04 01:38:34;;;;;;;27.77;9.10;;;7.80;99.90;;;;;;5020314;28;20144;-93
2022/01/04 01:40:59;;;;;;;25.92;9.48;;;7.80;99.90;;;;;;5036106;28;20103;-92
2022/01/04 01:43:29;;;;;;;34.35;10.00;;;7.60;99.90;;;;;;5036633;28;20057;-94
2022/01/04 01:45:55;;;;;;;31.02;10.75;;;7.70;99.90;;;;;;5020437;28;20060;-93
2022/01/04 01:48:21;;;;;;;35.42;11.50;;;7.80;99.90;;;;;;5036702;28;20053;-93
2022/01/04 01:50:48;;;;;;;34.15;10.30;;;7.70;99.90;;;;;;5020292;28;20117;-93
2022/01/04 01:53:14;;;;;;;32.50;10.85;;;7.70;99.90;;;;;;5019946;28;20502;-93
2022/01/04 01:55:40;;;;;;;27.88;10.18;;;7.70;99.90;;;;;;5036495;28;20048;-93
2022/01/04 01:58:06;;;;;;;39.50;12.68;;;7.70;99.90;;;;;;5036433;28;20139;-93
2022/01/04 02:00:31;;;;;;;25.17;10.85;;;7.70;99.90;;;;;;5036918;28;20175;-93
2022/01/04 02:02:59;;;;;;;29.55;11.40;;;7.70;99.90;;;;;;5036114;28;20063;-94
2022/01/04 02:05:25;;;;;;;30.27;11.27;;;7.70;99.90;;;;;;5020009;28;20064;-92
2022/01/04 02:07:51;;;;;;;38.55;12.55;;;7.60;99.90;;;;;;5037004;28;20557;-94
2022/01/04 02:10:17;;;;;;;40.35;12.30;;;7.70;99.90;;;;;;5020131;28;20060;-94
2022/01/04 02:12:46;;;;;;;35.95;11.15;;;7.60;99.90;;;;;;5019616;28;20049;-94
2022/01/04 02:15:18;;;;;;;36.17;12.00;;;7.80;99.90;;;;;;5019743;28;20061;-94
2022/01/04 02:17:44;;;;;;;38.60;12.23;;;7.60;99.90;;;;;;5021139;28;20465;-94
2022/01/04 02:20:11;;;;;;;35.65;12.20;;;7.70;99.90;;;;;;5023722;28;20437;-93
2022/01/04 02:22:38;;;;;;;36.95;11.82;;;7.60;99.90;;;;;;5040031;28;20118;-93
2022/01/04 02:25:05;;;;;;;31.48;12.15;;;7.60;99.90;;;;;;5023374;28;20513;-94
2022/01/04 02:27:34;;;;;;;34.67;11.88;;;7.60;99.90;;;;;;5023229;28;20087;-94
2022/01/04 02:30:00;;;;;;;32.25;11.63;;;7.70;99.90;;;;;;5022945;28;20136;-93
2022/01/04 02:32:26;;;;;;;31.88;11.73;;;7.60;99.90;;;;;;5039560;28;20053;-93
2022/01/04 02:34:52;;;;;;;38.83;13.30;;;7.60;99.90;;;;;;5023317;28;20060;-93
2022/01/04 02:37:23;;;;;;;42.70;13.02;;;7.60;99.90;;;;;;5023618;28;20060;-94
2022/01/04 02:39:51;;;;;;;33.25;11.80;;;7.70;99.90;;;;;;5040062;28;20401;-93
2022/01/04 02:42:17;;;;;;;33.70;12.68;;;7.60;99.90;;;;;;5039664;28;20056;-94
2022/01/04 02:44:43;;;;;;;32.10;12.00;;;7.80;99.90;;;;;;5039719;28;20056;-94
2022/01/04 02:47:10;;;;;;;28.92;12.32;;;7.80;99.90;;;;;;5022962;28;20048;-94
2022/01/04 02:49:35;;;;;;;36.45;12.70;;;7.90;99.90;;;;;;5023092;28;20049;-93
2022/01/04 02:52:01;;;;;;;36.42;12.85;;;7.80;99.90;;;;;;5023025;28;20049;-93
2022/01/04 02:54:27;;;;;;;32.25;12.63;;;8.10;99.90;;;;;;5039241;28;20060;-94
2022/01/04 02:56:52;;;;;;;32.67;12.30;;;7.80;99.90;;;;;;5039513;28;20053;-93
2022/01/04 02:59:19;;;;;;;31.55;12.55;;;7.80;99.90;;;;;;5039181;28;20052;-93
2022/01/04 03:01:45;;;;;;;33.65;12.50;;;7.90;99.90;;;;;;5039436;28;20057;-94
2022/01/04 03:04:10;;;;;;;31.90;12.63;;;7.90;99.90;;;;;;5023313;28;20513;-93
2022/01/04 03:06:37;;;;;;;36.28;12.27;;;7.90;99.90;;;;;;5039456;28;20041;-93
2022/01/04 03:09:06;;;;;;;28.33;11.75;;;7.90;99.90;;;;;;5022786;28;20093;-94
2022/01/04 03:11:33;;;;;;;32.35;12.30;;;7.90;99.90;;;;;;5038903;28;20060;-93
2022/01/04 03:14:00;;;;;;;31.00;11.93;;;7.80;99.90;;;;;;5022215;28;20135;-94
2022/01/04 03:16:26;;;;;;;31.65;12.73;;;8.00;99.90;;;;;;5022315;28;20075;-94
2022/01/04 03:19:03;;;;;;;37.30;12.35;;;7.90;99.90;;;;;;5022831;28;20489;-94
2022/01/04 03:21:38;;;;;;;35.67;12.25;;;7.90;99.90;;;;;;5039120;28;20056;-94
2022/01/04 03:24:06;;;;;;;30.48;11.70;;;8.10;99.90;;;;;;5022963;28;20064;-94
2022/01/04 03:26:32;;;;;;;31.67;13.55;;;8.00;99.90;;;;;;5022593;28;20053;-93
2022/01/04 03:28:58;;;;;;;33.53;12.68;;;8.10;99.90;;;;;;5038058;28;20088;-93
2022/01/04 03:31:25;;;;;;;36.63;12.80;;;8.10;99.90;;;;;;5022367;28;20091;-94
2022/01/04 03:33:51;;;;;;;35.03;13.63;;;8.20;99.90;;;;;;5022297;28;20049;-94
2022/01/04 03:36:20;;;;;;;32.70;13.13;;;8.00;99.90;;;;;;5039062;28;20129;-93
2022/01/04 03:38:48;;;;;;;31.95;14.20;;;8.00;99.90;;;;;;5022433;28;20061;-95
2022/01/04 03:41:14;;;;;;;36.58;14.60;;;8.00;99.90;;;;;;5022337;28;20092;-94
2022/01/04 03:43:39;;;;;;;36.17;13.98;;;8.00;99.90;;;;;;5022134;28;20048;-96
2022/01/04 03:46:06;;;;;;;30.83;14.40;;;8.00;99.90;;;;;;5038333;28;20422;-94
2022/01/04 03:48:33;;;;;;;33.67;14.15;;;8.10;99.90;;;;;;5039190;28;20052;-94
2022/01/04 03:50:59;;;;;;;36.67;14.52;;;8.00;99.90;;;;;;5037851;28;20057;-93
2022/01/04 03:53:25;;;;;;;36.35;14.38;;;7.90;99.90;;;;;;5021311;28;20089;-95
2022/01/04 03:55:50;;;;;;;35.28;14.73;;;8.00;99.90;;;;;;5038493;28;20140;-95
2022/01/04 03:58:16;;;;;;;35.95;15.07;;;7.90;99.90;;;;;;5022110;28;20507;-95
2022/01/04 04:00:42;;;;;;;36.30;14.35;;;7.90;99.90;;;;;;5037848;28;20458;-94
2022/01/04 04:03:07;;;;;;;35.65;15.15;;;7.90;99.90;;;;;;5038586;28;20063;-94
2022/01/04 04:05:33;;;;;;;41.13;15.65;;;7.90;99.90;;;;;;5038298;28;20049;-94
2022/01/04 04:07:59;;;;;;;34.30;15.38;;;7.80;99.90;;;;;;5021754;28;20122;-94
2022/01/04 04:10:24;;;;;;;35.83;14.93;;;7.80;99.90;;;;;;5021293;28;20392;-94
2022/01/04 04:12:50;;;;;;;31.40;14.85;;;7.70;99.90;;;;;;5021194;28;20466;-94
2022/01/04 04:15:16;;;;;;;29.25;15.23;;;7.80;99.90;;;;;;5037618;28;20061;-94
2022/01/04 04:17:44;;;;;;;35.83;15.40;;;7.90;99.90;;;;;;5038224;28;20044;-96
2022/01/04 04:20:10;;;;;;;38.15;16.20;;;7.90;99.90;;;;;;5021629;28;20438;-94
2022/01/04 04:22:35;;;;;;;33.17;15.00;;;7.90;99.90;;;;;;5021494;28;20139;-94
2022/01/04 04:25:01;;;;;;;31.08;15.20;;;7.90;99.90;;;;;;5021455;28;20065;-94
2022/01/04 04:27:27;;;;;;;40.95;15.40;;;8.00;99.90;;;;;;5037707;28;20064;-96
2022/01/04 04:29:52;;;;;;;31.65;15.15;;;8.00;99.90;;;;;;5037596;28;20053;-93
2022/01/04 04:32:18;;;;;;;39.28;16.13;;;8.00;99.90;;;;;;5021331;28;20053;-93
2022/01/04 04:34:44;;;;;;;33.83;16.63;;;8.00;99.90;;;;;;5037652;28;20072;-94
2022/01/04 04:37:09;;;;;;;34.80;15.80;;;8.10;99.90;;;;;;5038570;28;20055;-95
2022/01/04 04:39:35;;;;;;;34.63;16.63;;;8.00;99.90;;;;;;5006262;28;20526;-93
2022/01/04 04:42:01;;;;;;;35.97;15.48;;;7.80;99.90;;;;;;5021387;28;20143;-96
2022/01/04 04:44:27;;;;;;;31.27;14.40;;;8.00;99.90;;;;;;5021285;28;20148;-95
2022/01/04 04:46:52;;;;;;;33.00;14.57;;;8.10;99.90;;;;;;5021032;28;20056;-96
2022/01/04 04:49:18;;;;;;;30.65;13.25;;;7.90;99.90;;;;;;5037884;28;20055;-95
2022/01/04 04:51:44;;;;;;;35.45;13.80;;;7.90;99.90;;;;;;5022013;28;20052;-95
2022/01/04 04:54:09;;;;;;;33.28;13.73;;;8.00;99.90;;;;;;5023537;28;20495;-95
2022/01/04 04:56:38;;;;;;;30.48;12.55;;;8.00;99.90;;;;;;5021191;28;20059;-96
2022/01/04 04:59:08;;;;;;;30.45;13.95;;;8.10;99.90;;;;;;5037600;28;20068;-96
2022/01/04 05:01:35;;;;;;;25.73;13.93;;;8.00;99.90;;;;;;5037715;28;20060;-95
2022/01/04 05:04:00;;;;;;;39.38;15.15;;;8.00;99.90;;;;;;5020631;28;20057;-95
2022/01/04 05:06:26;;;;;;;36.60;15.52;;;8.00;99.90;;;;;;5021127;28;20063;-94
2022/01/04 05:08:52;;;;;;;38.20;16.08;;;8.00;99.90;;;;;;5020258;28;20056;-93
2022/01/04 05:11:18;;;;;;;90.18;19.73;;;8.10;99.90;;;;;;5036767;28;20144;-93
2022/01/04 05:13:44;;;;;;;32.00;13.57;;;8.00;99.90;;;;;;5020398;28;20045;-94
2022/01/04 05:16:10;;;;;;;38.58;15.45;;;7.90;99.90;;;;;;5020373;28;20111;-94
2022/01/04 05:18:36;;;;;;;31.30;14.93;;;8.00;99.90;;;;;;5021041;28;20067;-94
2022/01/04 05:21:03;;;;;;;34.05;16.42;;;7.90;99.90;;;;;;5020140;28;20494;-94
2022/01/04 05:23:29;;;;;;;36.85;16.60;;;7.90;99.90;;;;;;5020341;28;20095;-95
2022/01/04 05:25:55;;;;;;;36.70;17.00;;;7.90;99.90;;;;;;5020337;28;20083;-94
2022/01/04 05:28:21;;;;;;;33.47;17.17;;;7.90;99.90;;;;;;5036552;28;20048;-95
2022/01/04 05:30:47;;;;;;;46.80;17.20;;;7.90;99.90;;;;;;5020056;28;20057;-94
2022/01/04 05:33:12;;;;;;;38.35;17.80;;;7.90;99.90;;;;;;5019978;28;20057;-94
2022/01/04 05:35:38;;;;;;;38.33;18.73;;;7.90;99.90;;;;;;5036954;28;20068;-94
2022/01/04 05:38:04;;;;;;;40.03;18.42;;;7.80;99.90;;;;;;5036502;28;20103;-91
2022/01/04 05:40:30;;;;;;;40.15;19.00;;;7.70;99.90;;;;;;5036867;28;20059;-92
2022/01/04 05:42:55;;;;;;;36.65;17.83;;;7.80;99.90;;;;;;5020085;28;20392;-91
2022/01/04 05:45:21;;;;;;;34.95;18.00;;;8.00;99.90;;;;;;5036622;28;20536;-91
2022/01/04 05:47:47;;;;;;;37.17;18.10;;;7.80;99.90;;;;;;5036333;28;20053;-94
2022/01/04 05:50:13;;;;;;;38.08;17.77;;;7.90;99.90;;;;;;5020396;28;20091;-95
2022/01/04 05:52:38;;;;;;;38.50;18.08;;;7.80;99.90;;;;;;5021246;28;20491;-94
2022/01/04 05:55:04;;;;;;;33.95;17.50;;;8.00;99.90;;;;;;5024536;28;20053;-94
2022/01/04 05:57:30;;;;;;;37.90;17.98;;;7.70;99.90;;;;;;5040762;28;20136;-93
2022/01/04 05:59:57;;;;;;;37.95;18.50;;;7.80;99.90;;;;;;5024127;28;20085;-94
2022/01/04 06:02:23;;;;;;;45.90;19.58;;;7.70;99.90;;;;;;5023964;28;20052;-94
2022/01/04 06:04:49;;;;;;;39.55;19.33;;;7.70;99.90;;;;;;5040109;28;20103;-94
2022/01/04 06:07:15;;;;;;;40.03;18.98;;;7.70;99.90;;;;;;5040014;28;20052;-92
2022/01/04 06:09:44;;;;;;;45.72;19.20;;;7.70;99.90;;;;;;5040612;28;20074;-95
2022/01/04 06:14:54;;;;;;;;;;;7.60;99.90;;;;;;5041138;28;20544;-93
2022/01/04 06:17:33;;;;;;;44.40;17.42;;;7.60;99.90;;;;;;5040161;28;19921;-91
2022/01/04 06:20:00;;;;;;;37.05;19.90;;;7.60;99.90;;;;;;5040071;28;20053;-92
2022/01/04 06:22:27;;;;;;;38.88;19.48;;;7.60;99.90;;;;;;5023282;28;20093;-94
2022/01/04 06:24:54;;;;;;;35.53;18.15;;;7.60;99.90;;;;;;5040004;28;20053;-93
2022/01/04 06:27:20;;;;;;;42.33;19.02;;;7.60;99.90;;;;;;5023409;28;20060;-93
2022/01/04 06:29:47;;;;;;;44.45;19.85;;;7.60;99.90;;;;;;5039823;28;20414;-93
2022/01/04 06:32:13;;;;;;;41.60;18.90;;;7.40;99.90;;;;;;5040282;28;20045;-94
2022/01/04 06:34:42;;;;;;;42.30;19.90;;;7.70;99.90;;;;;;5039867;28;20380;-93
2022/01/04 06:37:08;;;;;;;44.80;19.23;;;7.70;99.90;;;;;;5039690;28;20065;-92
2022/01/04 06:39:34;;;;;;;43.00;19.83;;;7.70;99.90;;;;;;5023143;28;20115;-92
2022/01/04 06:42:00;;;;;;;38.47;18.30;;;7.90;99.90;;;;;;5039822;28;20052;-93
2022/01/04 06:44:26;;;;;;;42.95;20.52;;;7.70;99.90;;;;;;5039397;28;20461;-93
2022/01/04 06:46:52;;;;;;;40.45;19.50;;;7.60;99.90;;;;;;5023208;28;20052;-94
2022/01/04 06:49:19;;;;;;;48.85;20.58;;;7.70;99.90;;;;;;5039525;28;20055;-93
2022/01/04 06:51:46;;;;;;;37.97;19.38;;;7.70;99.90;;;;;;5023243;28;20049;-92
2022/01/04 06:54:14;;;;;;;43.88;20.55;;;7.70;99.90;;;;;;5022977;28;20056;-92
2022/01/04 06:56:40;;;;;;;43.72;20.77;;;7.70;99.90;;;;;;5039424;28;20045;-93
2022/01/04 06:59:06;;;;;;;49.40;21.55;;;7.60;99.90;;;;;;5039242;28;20048;-93
2022/01/04 07:01:34;;;;;;;47.97;20.15;;;7.60;99.90;;;;;;5039425;28;20053;-92
2022/01/04 07:04:00;;;;;;;43.75;20.30;;;7.70;99.90;;;;;;5021822;28;20053;-92
2022/01/04 07:06:26;;;;;;;42.45;20.85;;;7.60;99.90;;;;;;5023060;28;20486;-93
2022/01/04 07:08:52;;;;;;;42.25;19.98;;;7.70;99.90;;;;;;5038922;28;20084;-94
2022/01/04 07:11:18;;;;;;;45.28;21.00;;;7.70;99.90;;;;;;5038856;28;20053;-94
2022/01/04 07:13:46;;;;;;;44.63;20.45;;;7.70;99.90;;;;;;5022126;28;20487;-92
2022/01/04 07:16:12;;;;;;;48.92;20.83;;;7.70;99.90;;;;;;5038828;28;20052;-92
2022/01/04 07:18:38;;;;;;;53.30;21.45;;;7.70;99.90;;;;;;5039327;28;20463;-92
2022/01/04 07:21:04;;;;;;;43.15;20.05;;;7.80;99.90;;;;;;5023756;28;20057;-93
2022/01/04 07:23:30;;;;;;;34.65;21.02;;;7.60;99.90;;;;;;5024260;28;20045;-94
2022/01/04 07:25:56;;;;;;;38.65;21.38;;;7.80;99.90;;;;;;5024711;28;20143;-93
2022/01/04 07:28:23;;;;;;;36.28;18.98;;;7.70;99.90;;;;;;5023848;28;20083;-94
2022/01/04 07:30:49;;;;;;;39.53;20.67;;;7.90;99.90;;;;;;5040871;28;20076;-94
2022/01/04 07:33:17;;;;;;;41.53;21.40;;;7.70;99.90;;;;;;5040261;28;20056;-93
2022/01/04 07:35:46;;;;;;;42.05;20.80;;;8.00;99.90;;;;;;5024135;28;20053;-94
2022/01/04 07:38:12;;;;;;;41.00;21.05;;;7.80;99.90;;;;;;5039780;28;20064;-93
2022/01/04 07:40:38;;;;;;;44.20;21.67;;;7.80;99.90;;;;;;5023071;28;20059;-94
2022/01/04 07:43:04;;;;;;;41.40;20.98;;;7.80;99.90;;;;;;5051021;28;20057;-92
2022/01/04 07:45:31;;;;;;;49.90;23.60;;;7.90;99.90;;;;;;5056409;28;20056;-92
2022/01/04 07:47:57;;;;;;;49.63;22.20;;;7.80;99.90;;;;;;5056366;28;20061;-93
2022/01/04 07:50:23;;;;;;;45.95;21.95;;;7.80;99.90;;;;;;5056753;28;20041;-93
2022/01/04 07:52:49;;;;;;;44.05;21.67;;;7.80;99.90;;;;;;5039091;28;20096;-93
2022/01/04 07:55:16;;;;;;;37.28;21.33;;;7.70;99.90;;;;;;5039120;28;20063;-92
2022/01/04 07:57:43;;;;;;;46.55;22.63;;;7.70;99.90;;;;;;5055649;28;20057;-93
2022/01/04 08:00:10;;;;;;;42.13;20.45;;;7.70;99.90;;;;;;5039105;28;20052;-92
2022/01/04 08:02:38;;;;;;;49.15;21.85;;;7.70;99.90;;;;;;5039108;28;20056;-92
2022/01/04 08:05:04;;;;;;;45.00;21.08;;;7.70;99.90;;;;;;5023298;28;20391;-93
2022/01/04 08:07:30;;;;;;;38.95;20.92;;;7.70;99.90;;;;;;5021774;28;20402;-92
2022/01/04 08:09:56;;;;;;;39.53;21.70;;;7.80;99.90;;;;;;5021096;28;20051;-93
2022/01/04 08:12:22;;;;;;;43.22;21.13;;;7.90;99.90;;;;;;5041678;28;20045;-93
2022/01/04 08:14:48;;;;;;;38.70;18.27;;;7.60;99.90;;;;;;5045544;28;20048;-94
2022/01/04 08:17:15;;;;;;;37.97;19.95;;;7.80;99.90;;;;;;5022215;28;20590;-92
2022/01/04 08:19:40;;;;;;;39.67;19.92;;;7.70;99.90;;;;;;5021695;28;20402;-93
2022/01/04 08:22:06;;;;;;;35.72;17.38;;;7.80;99.90;;;;;;5021858;28;20048;-93
2022/01/04 08:24:32;;;;;;;37.17;19.23;;;7.70;99.90;;;;;;5022138;28;20450;-94
2022/01/04 08:26:57;;;;;;;35.67;19.40;;;7.70;99.90;;;;;;5039138;28;20052;-93
2022/01/04 08:29:25;;;;;;;35.95;18.92;;;7.80;99.90;;;;;;5039575;28;20103;-94
2022/01/04 08:31:51;;;;;;;38.40;19.27;;;7.60;99.90;;;;;;5022873;28;20053;-93
2022/01/04 08:36:52;;;;;;;38.03;18.38;;;7.60;99.90;;;;;;5310289;22;20416;-95
2022/01/04 08:39:20;;;;;;;38.28;19.75;;;7.70;99.90;;;;;;4960242;28;20051;-94
2022/01/04 08:41:46;;;;;;;38.83;18.70;;;7.60;99.90;;;;;;4956644;28;20062;-92
2022/01/04 08:44:12;;;;;;;34.55;19.35;;;7.60;99.90;;;;;;4954710;28;20056;-92
2022/01/04 08:46:40;;;;;;;36.55;20.92;;;7.60;99.90;;;;;;4957648;28;20122;-92
2022/01/04 08:49:08;;;;;;;38.88;18.90;;;7.60;99.90;;;;;;4974825;28;20101;-92
2022/01/04 08:51:37;;;;;;;42.00;19.73;;;7.60;99.90;;;;;;4959488;28;20055;-92
2022/01/04 08:54:04;;;;;;;47.70;20.73;;;7.90;99.90;;;;;;4959675;28;20054;-92
2022/01/04 08:56:33;;;;;;;40.72;20.63;;;7.60;99.90;;;;;;4959736;28;20050;-92
2022/01/04 08:58:59;;;;;;;43.88;20.88;;;7.70;99.90;;;;;;4958385;28;20388;-92
2022/01/04 09:01:28;;;;;;;40.70;20.30;;;7.70;99.90;;;;;;4976079;28;20482;-93
2022/01/04 09:03:53;;;;;;;36.47;20.27;;;7.70;99.90;;;;;;4959853;28;20070;-93
2022/01/04 09:06:22;;;;;;;42.03;20.50;;;7.70;99.90;;;;;;4958799;28;20054;-92
2022/01/04 09:08:50;;;;;;;40.42;21.05;;;7.70;99.90;;;;;;4959353;28;20057;-93
2022/01/04 09:11:21;;;;;;;;;;;7.70;99.90;;;;;;4958468;28;20479;-94
2022/01/04 09:13:48;;;;;;;40.03;20.75;;;7.70;99.90;;;;;;4958753;28;19929;-93
2022/01/04 09:18:46;;;;;;;41.67;21.45;;;7.80;99.90;;;;;;4981869;28;20121;-94
2022/01/04 09:21:24;;;;;;;55.70;23.05;;;7.80;99.90;;;;;;4976460;28;20137;-90
2022/01/04 09:23:50;;;;;;;48.67;21.58;;;7.70;99.90;;;;;;4961541;28;20055;-92
2022/01/04 09:26:17;;;;;;;54.08;24.48;;;7.70;99.90;;;;;;4958795;28;20415;-93
2022/01/04 09:28:43;;;;;;;43.08;18.92;;;7.70;99.90;;;;;;4971695;28;20058;-91
2022/01/04 09:31:10;;;;;;;40.15;19.15;;;7.80;99.90;;;;;;4958408;28;20047;-93
2022/01/04 09:33:37;;;;;;;45.10;20.23;;;7.70;99.90;;;;;;4970216;28;20051;-93
2022/01/04 09:36:04;;;;;;;29.70;14.57;;;7.60;99.90;;;;;;4951692;28;20396;-91
2022/01/04 09:38:30;;;;;;;25.77;12.10;;;7.50;99.90;;;;;;4939776;28;20137;-89
2022/01/04 09:40:56;;;;;;;22.73;10.63;;;7.50;99.90;;;;;;4955564;28;20047;-90
2022/01/04 09:43:24;;;;;;;17.23;9.07;;;7.40;99.90;;;;;;4956044;28;20133;-93
2022/01/04 09:45:52;;;;;;;21.13;8.65;;;7.40;99.90;;;;;;4957276;28;20050;-91
2022/01/04 09:48:19;;;;;;;24.27;9.30;;;7.20;99.90;;;;;;4956026;28;20061;-93
2022/01/04 09:50:46;;;;;;;19.42;8.70;;;7.10;99.90;;;;;;4942418;28;20059;-93
2022/01/04 09:53:19;;;;;;;20.15;7.55;;;7.30;99.90;;;;;;4974498;28;20057;-93
2022/01/04 09:55:53;;;;;;;20.00;7.18;;;7.00;99.90;;;;;;4972197;28;20579;-92
2022/01/04 09:58:21;;;;;;;20.60;7.15;;;7.00;99.90;;;;;;4972854;28;20122;-93
2022/01/04 10:00:49;;;;;;;19.67;6.55;;;7.20;99.90;;;;;;4973636;28;20452;-92
2022/01/04 10:03:28;;;;;;;12.35;5.50;;;7.00;99.90;;;;;;4969514;28;20483;-92
2022/01/04 10:06:04;;;;;;;19.90;5.32;;;7.00;99.90;;;;;;4973373;28;20063;-93
2022/01/04 10:08:30;;;;;;;10.88;4.93;;;7.00;99.90;;;;;;4972546;28;20053;-93
2022/01/04 10:11:06;;;;;;;12.95;4.40;;;7.30;99.90;;;;;;4957489;28;20046;-93
2022/01/04 10:13:32;;;;;;;12.50;4.40;;;7.10;99.90;;;;;;4964352;28;20193;-93
2022/01/04 10:15:59;;;;;;;18.33;4.35;;;7.10;99.90;;;;;;4957663;28;20134;-94
2022/01/04 10:18:27;;;;;;;11.32;3.97;;;7.30;99.90;;;;;;4973177;28;20059;-92
2022/01/04 10:21:14;;;;;;;14.27;3.20;;;7.20;99.90;;;;;;4957031;28;20511;-92
2022/01/04 10:23:54;;;;;;;11.38;3.15;;;7.20;99.90;;;;;;4973758;28;20050;-92
2022/01/04 10:26:35;;;;;;;9.68;2.80;;;7.30;99.90;;;;;;4973832;28;20067;-93
2022/01/04 10:29:00;;;;;;;12.15;2.40;;;7.30;99.90;;;;;;4973488;28;20051;-92
2022/01/04 10:31:26;;;;;;;10.48;2.60;;;7.10;99.90;;;;;;4973801;28;20101;-92
2022/01/04 10:33:54;;;;;;;13.30;3.75;;;7.30;99.90;;;;;;4973319;28;20082;-91
2022/01/04 10:36:21;;;;;;;16.52;3.10;;;7.30;99.90;;;;;;4956587;28;20142;-92
2022/01/04 10:38:48;;;;;;;14.75;3.10;;;7.30;99.90;;;;;;4973471;28;20039;-91
2022/01/04 10:41:20;;;;;;;14.68;2.47;;;7.40;99.90;;;;;;4960754;28;20055;-93
2022/01/04 10:44:06;;;;;;;15.93;2.88;;;7.20;99.90;;;;;;4976232;28;20431;-92
2022/01/04 10:46:41;;;;;;;9.75;2.28;;;7.30;99.90;;;;;;4976131;28;20481;-93
2022/01/04 10:49:24;;;;;;;12.30;2.55;;;7.20;99.90;;;;;;4977348;28;20508;-94
2022/01/04 10:52:07;;;;;;;11.88;2.25;;;7.20;99.90;;;;;;4944986;28;20050;-91
2022/01/04 10:54:33;;;;;;;7.47;2.15;;;7.20;99.90;;;;;;4960888;28;20134;-92
2022/01/04 10:57:07;;;;;;;9.93;2.20;;;7.10;99.90;;;;;;4945342;28;20059;-91
2022/01/04 10:59:33;;;;;;;11.60;2.20;;;7.00;99.90;;;;;;4960910;28;20059;-90
2022/01/04 11:01:59;;;;;;;16.15;2.58;;;7.00;99.90;;;;;;4960592;28;20047;-92
2022/01/04 11:04:24;;;;;;;9.07;2.10;;;7.10;99.90;;;;;;4961080;28;20105;-93
2022/01/04 11:06:58;;;;;;;12.02;2.35;;;6.90;99.90;;;;;;4944509;28;20488;-92
2022/01/04 11:09:23;;;;;;;8.90;1.75;;;7.00;99.90;;;;;;4942417;28;20054;-92
2022/01/04 11:11:49;;;;;;;11.82;1.77;;;6.80;99.90;;;;;;4971398;28;20058;-92
2022/01/04 11:14:15;;;;;;;9.25;1.50;;;6.90;99.90;;;;;;4975957;28;20134;-92
2022/01/04 11:16:42;;;;;;;6.55;1.80;;;6.80;99.90;;;;;;4976103;28;20090;-92
2022/01/04 11:19:08;;;;;;;13.05;2.17;;;7.10;99.90;;;;;;4976267;28;20050;-93
2022/01/04 11:21:53;;;;;;;7.30;1.70;;;6.90;99.90;;;;;;4959209;28;20134;-92
2022/01/04 11:24:20;;;;;;;13.05;2.42;;;6.80;99.90;;;;;;4942480;28;20137;-92
2022/01/04 11:26:48;;;;;;;10.55;2.20;;;6.70;99.90;;;;;;4975700;28;20062;-92
2022/01/04 11:29:16;;;;;;;9.90;2.00;;;6.70;99.90;;;;;;4973983;28;20514;-92
2022/01/04 11:31:48;;;;;;;11.85;2.00;;;6.80;99.90;;;;;;4959748;28;20426;-92
2022/01/04 11:34:30;;;;;;;8.38;1.50;;;6.80;99.90;;;;;;4957632;28;20062;-92
2022/01/04 11:36:55;;;;;;;9.32;1.73;;;6.70;99.90;;;;;;4956955;28;20066;-93
2022/01/04 11:39:35;;;;;;;10.10;1.90;;;6.70;99.90;;;;;;4963940;28;20058;-92
2022/01/04 11:42:07;;;;;;;7.57;2.15;;;6.70;99.90;;;;;;4973877;28;20129;-92
2022/01/04 11:44:35;;;;;;;8.32;1.92;;;6.70;99.90;;;;;;4944086;28;20174;-93
2022/01/04 11:47:16;;;;;;;8.25;1.85;;;6.70;99.90;;;;;;4945145;28;20062;-93
2022/01/04 11:50:16;;;;;;;8.23;1.95;;;6.60;99.90;;;;;;4967334;28;20047;-92
2022/01/04 11:52:55;;;;;;;7.57;2.10;;;6.60;99.90;;;;;;4975094;28;20106;-92
2022/01/04 11:55:36;;;;;;;9.48;2.00;;;6.50;99.90;;;;;;4974615;28;20105;-92
2022/01/04 11:58:04;;;;;;;;;;;6.40;99.90;;;;;;4959373;28;20047;-92
2022/01/04 12:00:33;;;;;;;9.20;1.05;;;6.20;99.90;;;;;;4946984;28;19925;-93
2022/01/04 12:03:10;;;;;;;6.53;1.00;;;6.10;99.90;;;;;;4975285;28;20047;-92
2022/01/04 12:05:39;;;;;;;5.07;0.80;;;6.00;99.90;;;;;;4949070;28;20507;-94
2022/01/04 12:08:24;;;;;;;5.07;0.73;;;5.90;99.90;;;;;;4960591;28;20109;-92
2022/01/04 12:10:52;;;;;;;5.65;0.70;;;5.80;99.90;;;;;;4944225;28;20054;-93
2022/01/04 12:13:23;;;;;;;7.88;0.80;;;5.60;99.90;;;;;;4959767;28;20061;-92
2022/01/04 12:15:54;;;;;;;5.82;0.60;;;5.60;99.90;;;;;;4944524;28;20150;-93
2022/01/04 12:18:23;;;;;;;4.57;0.98;;;5.60;99.90;;;;;;4944019;28;20051;-93
2022/01/04 12:20:50;;;;;;;5.45;1.20;;;5.70;99.90;;;;;;4960084;28;20057;-92
2022/01/04 12:23:31;;;;;;;9.75;1.30;;;5.60;99.90;;;;;;4944136;28;20055;-92
2022/01/04 12:26:17;;;;;;;;;;;5.60;99.90;;;;;;4960652;28;20134;-92
2022/01/04 12:29:05;;;;;;;3.72;1.00;;;5.40;99.90;;;;;;4959881;28;19921;-90
2022/01/04 12:31:50;;;;;;;5.75;0.90;;;5.60;99.90;;;;;;4959266;28;20058;-91
2022/01/04 12:34:35;;;;;;;4.43;0.68;;;5.60;99.90;;;;;;4940029;28;20059;-93
2022/01/04 12:37:03;;;;;;;5.45;0.60;;;5.60;99.90;;;;;;4956429;28;20062;-92
2022/01/04 12:39:35;;;;;;;4.18;0.50;;;5.50;99.90;;;;;;4974909;28;20449;-92
2022/01/04 12:42:02;;;;;;;2.10;0.40;;;5.30;99.90;;;;;;4972584;28;20496;-92
2022/01/04 12:44:29;;;;;;;4.53;0.95;;;5.20;99.90;;;;;;4958157;28;20055;-91
2022/01/04 12:46:55;;;;;;;2.25;0.47;;;5.30;99.90;;;;;;4974714;28;20150;-92
2022/01/04 12:49:28;;;;;;;4.78;0.65;;;4.90;99.90;;;;;;4958965;28;20090;-91
2022/01/04 12:51:56;;;;;;;10.40;0.70;;;5.00;99.90;;;;;;4958437;28;20054;-92
2022/01/04 12:54:25;;;;;;;6.85;1.10;;;5.00;99.90;;;;;;4975100;28;20069;-92
2022/01/04 12:56:58;;;;;;;6.07;0.45;;;5.00;99.90;;;;;;4959113;28;20095;-91